createdAt,value
2018-10-01T00:00:31.296Z,13.13
2018-10-01T00:01:30.161Z,13.13
2018-10-01T00:02:30.135Z,13.10
2018-10-01T00:03:30.170Z,13.04
2018-10-01T00:04:30.080Z,13.13
2018-10-01T00:05:30.053Z,13.13
2018-10-01T00:06:30.026Z,13.06
2018-10-01T00:07:29.999Z,13.04
2018-10-01T00:08:29.979Z,13.09
2018-10-01T00:09:29.946Z,13.14
2018-10-01T00:10:29.917Z,13.09
2018-10-01T00:11:29.892Z,13.09
2018-10-01T00:12:29.914Z,12.98
2018-10-01T00:13:29.836Z,12.99
2018-10-01T00:14:29.812Z,12.99
2018-10-01T00:15:29.781Z,12.98
2018-10-01T00:16:29.754Z,12.92
2018-10-01T00:17:29.726Z,12.94
2018-10-01T00:18:29.702Z,12.96
2018-10-01T00:19:29.673Z,13.04
2018-10-01T00:20:29.645Z,13.03
2018-10-01T00:21:29.619Z,12.99
2018-10-01T00:22:29.591Z,12.87
2018-10-01T00:23:29.563Z,12.89
2018-10-01T00:24:29.542Z,12.95
2018-10-01T00:25:29.509Z,12.96
2018-10-01T00:26:29.483Z,12.92
2018-10-01T00:27:29.455Z,12.95
2018-10-01T00:28:29.426Z,12.91
2018-10-01T00:29:29.401Z,12.89
2018-10-01T00:30:29.372Z,12.88
2018-10-01T00:31:29.346Z,12.77
2018-10-01T00:32:29.319Z,12.79
2018-10-01T00:33:29.290Z,12.80
2018-10-01T00:34:29.263Z,12.69
2018-10-01T00:35:29.238Z,12.70
2018-10-01T00:37:14.588Z,12.73
2018-10-01T00:38:11.331Z,12.74
2018-10-01T00:39:11.504Z,12.63
2018-10-01T00:40:11.488Z,12.67
2018-10-01T00:41:11.556Z,12.66
2018-10-01T00:42:11.221Z,12.73
2018-10-01T00:43:11.193Z,12.71
2018-10-01T00:44:11.369Z,12.73
2018-10-01T00:45:11.140Z,12.73
2018-10-01T00:46:11.111Z,12.76
2018-10-01T00:47:11.086Z,12.76
2018-10-01T00:48:11.057Z,12.70
2018-10-01T00:49:11.029Z,12.74
2018-10-01T00:50:11.001Z,12.63
2018-10-01T00:51:10.976Z,12.70
2018-10-01T00:52:10.946Z,12.67
2018-10-01T00:53:10.920Z,12.63
2018-10-01T00:54:10.894Z,12.70
2018-10-01T00:55:10.865Z,12.67
2018-10-01T00:56:10.837Z,12.66
2018-10-01T00:57:10.809Z,12.67
2018-10-01T00:58:10.831Z,12.70
2018-10-01T00:59:10.758Z,12.58
2018-10-01T01:00:10.735Z,12.63
2018-10-01T01:01:10.700Z,12.63
2018-10-01T01:02:10.672Z,12.59
2018-10-01T01:03:10.644Z,12.62
2018-10-01T01:04:10.618Z,12.54
2018-10-01T01:05:10.592Z,12.70
2018-10-01T01:06:10.561Z,12.56
2018-10-01T01:07:10.536Z,12.63
2018-10-01T01:08:10.506Z,12.55
2018-10-01T01:09:10.479Z,12.55
2018-10-01T01:10:10.451Z,12.62
2018-10-01T01:11:10.424Z,12.66
2018-10-01T01:12:10.396Z,12.63
2018-10-01T01:13:10.369Z,12.62
2018-10-01T01:14:10.343Z,12.58
2018-10-01T01:15:10.314Z,12.62
2018-10-01T01:16:10.287Z,12.62
2018-10-01T01:17:10.260Z,12.59
2018-10-01T01:18:10.231Z,12.66
2018-10-01T01:19:10.204Z,12.58
2018-10-01T01:20:10.177Z,12.55
2018-10-01T01:21:10.150Z,12.58
2018-10-01T01:22:10.147Z,12.44
2018-10-01T01:23:10.098Z,12.52
2018-10-01T01:24:10.068Z,12.46
2018-10-01T01:25:10.040Z,12.55
2018-10-01T01:26:10.012Z,12.48
2018-10-01T01:27:09.985Z,12.49
2018-10-01T01:28:09.957Z,12.58
2018-10-01T01:29:09.928Z,12.63
2018-10-01T01:30:09.902Z,12.61
2018-10-01T01:31:09.875Z,12.63
2018-10-01T01:32:09.847Z,12.58
2018-10-01T01:33:09.821Z,12.70
2018-10-01T01:34:09.791Z,12.67
2018-10-01T01:35:09.764Z,12.67
2018-10-01T01:36:09.737Z,12.54
2018-10-01T01:37:09.711Z,12.62
2018-10-01T01:38:09.681Z,12.66
2018-10-01T01:39:09.657Z,12.63
2018-10-01T01:40:09.628Z,12.56
2018-10-01T01:41:09.604Z,12.63
2018-10-01T01:42:09.573Z,12.54
2018-10-01T01:43:09.544Z,12.54
2018-10-01T01:44:10.576Z,12.46
2018-10-01T01:45:09.490Z,12.44
2018-10-01T01:46:09.461Z,12.37
2018-10-01T01:47:09.434Z,12.29
2018-10-01T01:48:09.408Z,12.30
2018-10-01T01:49:09.380Z,12.34
2018-10-01T01:50:09.602Z,12.34
2018-10-01T01:51:09.324Z,12.21
2018-10-01T01:52:09.297Z,12.22
2018-10-01T01:53:09.270Z,12.11
2018-10-01T01:54:09.242Z,12.12
2018-10-01T01:55:09.213Z,12.12
2018-10-01T01:56:09.186Z,12.15
2018-10-01T01:57:09.170Z,12.15
2018-10-01T01:58:09.129Z,12.05
2018-10-01T01:59:09.104Z,12.00
2018-10-01T02:00:09.076Z,12.07
2018-10-01T02:01:09.048Z,12.05
2018-10-01T02:02:09.021Z,12.00
2018-10-01T02:03:08.993Z,11.94
2018-10-01T02:04:08.967Z,11.93
2018-10-01T02:05:08.941Z,11.85
2018-10-01T02:06:08.910Z,11.93
2018-10-01T02:07:08.883Z,12.01
2018-10-01T02:08:08.857Z,12.01
2018-10-01T02:09:08.833Z,12.08
2018-10-01T02:10:08.799Z,12.05
2018-10-01T02:11:08.770Z,12.01
2018-10-01T02:12:08.744Z,12.03
2018-10-01T02:13:08.717Z,11.97
2018-10-01T02:14:08.688Z,11.97
2018-10-01T02:15:08.664Z,12.04
2018-10-01T02:16:08.633Z,12.05
2018-10-01T02:17:08.607Z,11.96
2018-10-01T02:18:08.578Z,12.04
2018-10-01T02:19:08.552Z,12.04
2018-10-01T02:20:08.523Z,12.12
2018-10-01T02:21:08.495Z,12.12
2018-10-01T02:22:08.466Z,12.08
2018-10-01T02:23:08.440Z,12.05
2018-10-01T02:24:08.418Z,12.03
2018-10-01T02:25:08.385Z,12.11
2018-10-01T02:26:08.356Z,12.11
2018-10-01T02:27:08.332Z,12.04
2018-10-01T02:28:08.305Z,12.12
2018-10-01T02:29:08.276Z,12.07
2018-10-01T02:30:08.246Z,12.08
2018-10-01T02:31:08.231Z,12.07
2018-10-01T02:32:08.192Z,11.98
2018-10-01T02:33:08.163Z,12.00
2018-10-01T02:34:08.136Z,12.04
2018-10-01T02:35:08.107Z,12.11
2018-10-01T02:36:08.082Z,12.00
2018-10-01T02:37:08.059Z,12.03
2018-10-01T02:38:08.030Z,12.01
2018-10-01T02:39:07.998Z,12.01
2018-10-01T02:40:07.969Z,11.88
2018-10-01T02:41:07.944Z,11.98
2018-10-01T02:42:07.917Z,11.85
2018-10-01T02:43:07.890Z,11.94
2018-10-01T02:44:07.859Z,11.90
2018-10-01T02:45:07.831Z,11.82
2018-10-01T02:46:07.806Z,11.94
2018-10-01T02:47:07.776Z,11.93
2018-10-01T02:48:07.748Z,11.94
2018-10-01T02:49:07.726Z,11.96
2018-10-01T02:50:07.697Z,11.82
2018-10-01T02:51:07.666Z,11.84
2018-10-01T02:52:07.637Z,11.87
2018-10-01T02:53:07.614Z,11.98
2018-10-01T02:54:07.581Z,11.88
2018-10-01T02:55:07.556Z,11.88
2018-10-01T02:56:07.527Z,11.88
2018-10-01T02:57:07.499Z,11.90
2018-10-01T02:58:07.470Z,11.97
2018-10-01T02:59:07.443Z,11.96
2018-10-01T03:00:07.414Z,12.00
2018-10-01T03:01:07.389Z,11.87
2018-10-01T03:02:07.360Z,11.88
2018-10-01T03:03:07.334Z,11.97
2018-10-01T03:04:07.306Z,11.98
2018-10-01T03:05:07.281Z,11.88
2018-10-01T03:06:07.248Z,11.94
2018-10-01T03:07:07.220Z,12.00
2018-10-01T03:08:07.219Z,11.94
2018-10-01T03:09:07.167Z,11.84
2018-10-01T03:10:07.138Z,11.79
2018-10-01T03:11:07.110Z,11.84
2018-10-01T03:12:07.090Z,11.81
2018-10-01T03:13:07.055Z,11.85
2018-10-01T03:14:07.028Z,11.78
2018-10-01T03:15:07.012Z,11.79
2018-10-01T03:16:06.970Z,11.72
2018-10-01T03:17:06.945Z,11.67
2018-10-01T03:18:06.917Z,11.66
2018-10-01T03:19:06.892Z,11.70
2018-10-01T03:20:06.861Z,11.82
2018-10-01T03:21:06.867Z,11.81
2018-10-01T03:22:06.804Z,11.67
2018-10-01T03:23:06.786Z,11.66
2018-10-01T03:24:06.749Z,11.72
2018-10-01T03:25:06.725Z,11.67
2018-10-01T03:26:06.692Z,11.66
2018-10-01T03:27:06.665Z,11.59
2018-10-01T03:28:06.645Z,11.62
2018-10-01T03:29:06.609Z,11.66
2018-10-01T03:30:06.591Z,11.66
2018-10-01T03:31:06.553Z,11.74
2018-10-01T03:32:06.525Z,11.75
2018-10-01T03:33:06.498Z,11.82
2018-10-01T03:34:06.473Z,11.82
2018-10-01T03:35:06.441Z,11.84
2018-10-01T03:36:06.423Z,11.93
2018-10-01T03:37:06.385Z,11.97
2018-10-01T03:38:06.362Z,11.81
2018-10-01T03:39:06.330Z,11.94
2018-10-01T03:40:06.345Z,11.93
2018-10-01T03:41:06.281Z,11.93
2018-10-01T03:42:06.246Z,11.88
2018-10-01T03:43:06.218Z,11.85
2018-10-01T03:44:06.192Z,11.82
2018-10-01T03:45:06.163Z,11.78
2018-10-01T03:46:06.139Z,11.77
2018-10-01T03:47:06.108Z,11.77
2018-10-01T03:48:06.080Z,11.67
2018-10-01T03:49:06.053Z,11.72
2018-10-01T03:50:06.024Z,11.70
2018-10-01T03:51:06.003Z,11.78
2018-10-01T03:52:05.967Z,11.75
2018-10-01T03:53:05.941Z,11.66
2018-10-01T03:54:05.913Z,11.63
2018-10-01T03:55:05.887Z,11.54
2018-10-01T03:56:05.858Z,11.62
2018-10-01T03:57:05.831Z,11.44
2018-10-01T03:58:05.802Z,11.54
2018-10-01T03:59:05.773Z,11.56
2018-10-01T04:00:05.753Z,11.51
2018-10-01T04:01:05.719Z,11.41
2018-10-01T04:02:05.693Z,11.48
2018-10-01T04:03:05.732Z,11.53
2018-10-01T04:04:05.634Z,11.62
2018-10-01T04:05:05.610Z,11.54
2018-10-01T04:06:05.576Z,11.44
2018-10-01T04:07:05.553Z,11.46
2018-10-01T04:08:05.527Z,11.49
2018-10-01T04:09:05.494Z,11.51
2018-10-01T04:10:05.465Z,11.62
2018-10-01T04:11:05.437Z,11.70
2018-10-01T04:12:05.409Z,11.62
2018-10-01T04:13:05.382Z,11.63
2018-10-01T04:14:05.355Z,11.63
2018-10-01T04:15:05.325Z,11.67
2018-10-01T04:16:05.297Z,11.62
2018-10-01T04:17:05.269Z,11.63
2018-10-01T04:18:05.244Z,11.56
2018-10-01T04:19:05.212Z,11.53
2018-10-01T04:20:05.185Z,11.56
2018-10-01T04:21:05.160Z,11.62
2018-10-01T04:22:05.129Z,11.60
2018-10-01T04:23:05.101Z,11.56
2018-10-01T04:24:05.074Z,11.53
2018-10-01T04:25:05.045Z,11.56
2018-10-01T04:26:05.020Z,11.54
2018-10-01T04:27:04.992Z,11.54
2018-10-01T04:28:05.012Z,11.53
2018-10-01T04:29:04.934Z,11.48
2018-10-01T04:30:04.906Z,11.56
2018-10-01T04:31:04.886Z,11.56
2018-10-01T04:32:04.848Z,11.62
2018-10-01T04:33:04.827Z,11.60
2018-10-01T04:34:05.592Z,11.62
2018-10-01T04:35:04.764Z,11.54
2018-10-01T04:36:04.742Z,11.59
2018-10-01T04:37:04.709Z,11.56
2018-10-01T04:38:04.680Z,11.59
2018-10-01T04:39:04.654Z,11.60
2018-10-01T04:40:04.626Z,11.54
2018-10-01T04:41:04.598Z,11.66
2018-10-01T04:42:04.567Z,11.56
2018-10-01T04:43:04.541Z,11.63
2018-10-01T04:44:04.516Z,11.67
2018-10-01T04:45:04.488Z,11.70
2018-10-01T04:46:04.456Z,11.69
2018-10-01T04:47:04.432Z,11.70
2018-10-01T04:48:04.401Z,11.67
2018-10-01T04:49:04.374Z,11.69
2018-10-01T04:50:04.344Z,11.66
2018-10-01T04:51:04.322Z,11.69
2018-10-01T04:52:04.289Z,11.57
2018-10-01T04:53:04.261Z,11.59
2018-10-01T04:54:04.232Z,11.54
2018-10-01T04:55:04.206Z,11.54
2018-10-01T04:56:04.180Z,11.56
2018-10-01T04:57:04.149Z,11.56
2018-10-01T04:58:04.173Z,11.48
2018-10-01T04:59:04.097Z,11.51
2018-10-01T05:00:04.069Z,11.53
2018-10-01T05:01:04.037Z,11.51
2018-10-01T05:02:04.009Z,11.45
2018-10-01T05:03:03.983Z,11.51
2018-10-01T05:04:03.957Z,11.54
2018-10-01T05:05:03.926Z,11.56
2018-10-01T05:06:03.961Z,11.49
2018-10-01T05:07:03.868Z,11.45
2018-10-01T05:08:03.844Z,11.39
2018-10-01T05:09:04.114Z,11.46
2018-10-01T05:10:03.783Z,11.38
2018-10-01T05:11:03.757Z,11.44
2018-10-01T05:12:03.729Z,11.46
2018-10-01T05:13:03.701Z,11.42
2018-10-01T05:14:03.674Z,11.41
2018-10-01T05:15:03.648Z,11.46
2018-10-01T05:16:03.618Z,11.46
2018-10-01T05:17:03.589Z,11.44
2018-10-01T05:18:03.560Z,11.41
2018-10-01T05:19:03.533Z,11.45
2018-10-01T05:20:03.505Z,11.42
2018-10-01T05:21:03.487Z,11.46
2018-10-01T05:22:03.451Z,11.49
2018-10-01T05:23:03.425Z,11.41
2018-10-01T05:24:03.397Z,11.45
2018-10-01T05:25:03.370Z,11.44
2018-10-01T05:26:03.345Z,11.44
2018-10-01T05:27:03.371Z,11.39
2018-10-01T05:28:03.285Z,11.53
2018-10-01T05:29:03.253Z,11.53
2018-10-01T05:30:03.225Z,11.51
2018-10-01T05:31:03.196Z,11.45
2018-10-01T05:32:03.169Z,11.45
2018-10-01T05:33:03.142Z,11.45
2018-10-01T05:34:03.112Z,11.42
2018-10-01T05:35:03.085Z,11.51
2018-10-01T05:36:03.057Z,11.54
2018-10-01T05:37:03.031Z,11.53
2018-10-01T05:38:03.010Z,11.53
2018-10-01T05:39:02.972Z,11.49
2018-10-01T05:40:02.947Z,11.46
2018-10-01T05:41:02.917Z,11.62
2018-10-01T05:42:02.888Z,11.56
2018-10-01T05:43:02.861Z,11.53
2018-10-01T05:44:02.833Z,11.56
2018-10-01T05:45:02.806Z,11.59
2018-10-01T05:46:02.777Z,11.57
2018-10-01T05:47:02.749Z,11.64
2018-10-01T05:48:02.722Z,11.54
2018-10-01T05:49:02.735Z,11.64
2018-10-01T05:50:02.668Z,11.56
2018-10-01T05:51:02.637Z,11.59
2018-10-01T05:52:02.612Z,11.54
2018-10-01T05:53:02.582Z,11.56
2018-10-01T05:54:02.561Z,11.53
2018-10-01T05:55:02.567Z,11.57
2018-10-01T05:56:02.748Z,11.39
2018-10-01T05:57:02.476Z,11.57
2018-10-01T05:58:02.487Z,11.54
2018-10-01T05:59:02.414Z,11.53
2018-10-01T06:00:02.388Z,11.56
2018-10-01T06:01:02.365Z,11.56
2018-10-01T06:02:02.331Z,11.66
2018-10-01T06:03:02.304Z,11.57
2018-10-01T06:04:02.275Z,11.53
2018-10-01T06:05:02.248Z,11.59
2018-10-01T06:06:02.221Z,11.56
2018-10-01T06:07:02.192Z,11.51
2018-10-01T06:08:02.168Z,11.56
2018-10-01T06:09:02.138Z,11.51
2018-10-01T06:10:02.113Z,11.46
2018-10-01T06:11:02.084Z,11.48
2018-10-01T06:12:02.055Z,11.53
2018-10-01T06:13:02.027Z,11.51
2018-10-01T06:14:02.000Z,11.51
2018-10-01T06:15:01.971Z,11.59
2018-10-01T06:16:01.949Z,11.49
2018-10-01T06:17:01.916Z,11.64
2018-10-01T06:18:01.888Z,11.64
2018-10-01T06:19:01.865Z,11.60
2018-10-01T06:20:01.833Z,11.51
2018-10-01T06:21:01.805Z,11.54
2018-10-01T06:22:01.777Z,11.53
2018-10-01T06:23:01.749Z,11.62
2018-10-01T06:24:01.723Z,11.62
2018-10-01T06:25:01.765Z,11.62
2018-10-01T06:26:01.668Z,11.53
2018-10-01T06:27:01.641Z,11.66
2018-10-01T06:28:01.610Z,11.64
2018-10-01T06:29:01.583Z,11.62
2018-10-01T06:30:01.555Z,11.62
2018-10-01T06:31:01.534Z,11.62
2018-10-01T06:32:01.503Z,11.69
2018-10-01T06:33:01.472Z,11.66
2018-10-01T06:34:01.445Z,11.63
2018-10-01T06:35:01.421Z,11.70
2018-10-01T06:36:01.390Z,11.67
2018-10-01T06:37:01.362Z,11.70
2018-10-01T06:38:01.393Z,11.78
2018-10-01T06:39:01.309Z,11.77
2018-10-01T06:40:01.279Z,11.77
2018-10-01T06:41:01.252Z,11.75
2018-10-01T06:42:01.266Z,11.77
2018-10-01T06:43:01.197Z,11.81
2018-10-01T06:44:01.170Z,11.77
2018-10-01T06:45:01.144Z,11.78
2018-10-01T06:46:01.114Z,11.78
2018-10-01T06:47:01.085Z,11.79
2018-10-01T06:48:01.061Z,11.66
2018-10-01T06:49:01.282Z,11.79
2018-10-01T06:50:01.010Z,11.75
2018-10-01T06:51:01.091Z,11.79
2018-10-01T06:52:00.950Z,11.78
2018-10-01T06:53:00.927Z,11.82
2018-10-01T06:54:00.895Z,11.77
2018-10-01T06:55:00.866Z,11.79
2018-10-01T06:56:00.844Z,11.81
2018-10-01T06:57:00.813Z,11.81
2018-10-01T06:58:00.792Z,11.82
2018-10-01T06:59:00.757Z,11.77
2018-10-01T07:00:00.730Z,11.72
2018-10-01T07:01:00.755Z,11.57
2018-10-01T07:02:00.674Z,11.60
2018-10-01T07:03:00.649Z,11.66
2018-10-01T07:04:00.620Z,11.64
2018-10-01T07:05:00.593Z,11.57
2018-10-01T07:06:00.721Z,11.66
2018-10-01T07:07:00.543Z,11.63
2018-10-01T07:08:00.511Z,11.70
2018-10-01T07:09:00.504Z,11.64
2018-10-01T07:10:00.456Z,11.66
2018-10-01T07:11:00.431Z,11.67
2018-10-01T07:12:00.401Z,11.82
2018-10-01T07:13:00.374Z,11.78
2018-10-01T07:14:00.346Z,11.94
2018-10-01T07:15:00.319Z,11.98
2018-10-01T07:16:00.292Z,11.94
2018-10-01T07:17:00.291Z,12.04
2018-10-01T07:18:00.237Z,12.00
2018-10-01T07:19:00.209Z,11.90
2018-10-01T07:20:00.182Z,11.96
2018-10-01T07:21:00.156Z,12.01
2018-10-01T07:22:00.128Z,11.90
2018-10-01T07:23:00.157Z,12.00
2018-10-01T07:24:00.074Z,11.82
2018-10-01T07:25:00.046Z,11.88
2018-10-01T07:26:00.021Z,11.82
2018-10-01T07:26:59.992Z,11.81
2018-10-01T07:27:59.967Z,11.77
2018-10-01T07:28:59.939Z,11.85
2018-10-01T07:29:59.909Z,11.85
2018-10-01T07:30:59.882Z,11.88
2018-10-01T07:31:59.863Z,12.07
2018-10-01T07:32:59.828Z,12.07
2018-10-01T07:33:59.810Z,12.12
2018-10-01T07:34:59.778Z,12.05
2018-10-01T07:35:59.746Z,12.12
2018-10-01T07:36:59.719Z,12.21
2018-10-01T07:37:59.691Z,12.23
2018-10-01T07:38:59.719Z,12.16
2018-10-01T07:39:59.643Z,12.21
2018-10-01T07:40:59.614Z,12.30
2018-10-01T07:41:59.587Z,12.33
2018-10-01T07:42:59.557Z,12.29
2018-10-01T07:43:59.529Z,12.23
2018-10-01T07:44:59.645Z,12.19
2018-10-01T07:45:59.502Z,12.19
2018-10-01T07:46:59.451Z,12.13
2018-10-01T07:47:59.421Z,12.22
2018-10-01T07:48:59.407Z,12.30
2018-10-01T07:49:59.368Z,12.30
2018-10-01T07:50:59.480Z,12.31
2018-10-01T07:51:59.312Z,12.36
2018-10-01T07:52:59.286Z,12.30
2018-10-01T07:53:59.268Z,12.31
2018-10-01T07:54:59.233Z,12.25
2018-10-01T07:55:59.217Z,12.30
2018-10-01T07:56:59.235Z,12.41
2018-10-01T07:57:59.157Z,12.34
2018-10-01T07:58:59.127Z,12.38
2018-10-01T07:59:59.330Z,12.52
2018-10-01T08:00:59.069Z,12.73
2018-10-01T08:01:59.056Z,12.76
2018-10-01T08:02:59.014Z,13.12
2018-10-01T08:03:58.990Z,14.01
2018-10-01T08:04:58.964Z,14.11
2018-10-01T08:05:58.934Z,14.17
2018-10-01T08:06:58.929Z,14.17
2018-10-01T08:07:58.932Z,13.79
2018-10-01T08:08:58.864Z,13.72
2018-10-01T08:09:58.829Z,13.61
2018-10-01T08:10:58.807Z,13.59
2018-10-01T08:11:58.775Z,13.39
2018-10-01T08:12:58.752Z,13.48
2018-10-01T08:13:58.742Z,13.81
2018-10-01T08:14:58.699Z,13.94
2018-10-01T08:15:58.877Z,14.27
2018-10-01T08:16:58.653Z,14.36
2018-10-01T08:17:58.623Z,14.60
2018-10-01T08:18:58.598Z,14.98
2018-10-01T08:19:58.577Z,13.98
2018-10-01T08:20:58.548Z,13.80
2018-10-01T08:21:58.773Z,13.93
2018-10-01T08:22:58.499Z,13.84
2018-10-01T08:23:58.474Z,13.65
2018-10-01T08:24:58.452Z,13.29
2018-10-01T08:25:58.437Z,13.38
2018-10-01T08:26:58.399Z,13.27
2018-10-01T08:27:58.375Z,13.17
2018-10-01T08:28:58.360Z,13.10
2018-10-01T08:29:58.466Z,13.12
2018-10-01T08:30:58.300Z,13.07
2018-10-01T08:31:58.319Z,13.16
2018-10-01T08:32:58.259Z,13.03
2018-10-01T08:33:58.225Z,13.13
2018-10-01T08:34:58.246Z,13.73
2018-10-01T08:35:58.180Z,14.46
2018-10-01T08:36:58.156Z,15.09
2018-10-01T08:37:58.170Z,15.25
2018-10-01T08:38:58.177Z,15.05
2018-10-01T08:39:58.075Z,14.91
2018-10-01T08:40:58.099Z,15.07
2018-10-01T08:41:58.025Z,15.55
2018-10-01T08:42:58.005Z,15.58
2018-10-01T08:43:57.981Z,15.85
2018-10-01T08:44:58.758Z,15.80
2018-10-01T08:45:57.928Z,14.97
2018-10-01T08:46:58.115Z,14.26
2018-10-01T08:47:57.885Z,14.08
2018-10-01T08:48:57.859Z,13.73
2018-10-01T08:49:57.883Z,13.44
2018-10-01T08:50:57.814Z,13.31
2018-10-01T08:51:57.804Z,13.28
2018-10-01T08:52:57.832Z,13.27
2018-10-01T08:53:57.750Z,13.17
2018-10-01T08:54:57.718Z,13.17
2018-10-01T08:55:57.716Z,13.19
2018-10-01T08:56:57.673Z,13.22
2018-10-01T08:57:57.650Z,13.43
2018-10-01T08:58:57.675Z,13.53
2018-10-01T08:59:57.602Z,13.59
2018-10-01T09:00:57.636Z,13.72
2018-10-01T09:01:57.580Z,13.98
2018-10-01T09:02:57.530Z,14.12
2018-10-01T09:03:57.507Z,14.39
2018-10-01T09:04:57.528Z,14.38
2018-10-01T09:05:57.461Z,14.29
2018-10-01T09:06:57.570Z,13.90
2018-10-01T09:07:57.425Z,13.59
2018-10-01T09:08:57.397Z,13.31
2018-10-01T09:09:57.369Z,13.09
2018-10-01T09:10:57.394Z,13.13
2018-10-01T09:11:57.316Z,13.27
2018-10-01T09:12:57.293Z,13.46
2018-10-01T09:13:57.330Z,13.44
2018-10-01T09:14:57.315Z,13.48
2018-10-01T09:15:57.221Z,13.48
2018-10-01T09:16:57.252Z,13.28
2018-10-01T09:17:57.172Z,13.06
2018-10-01T09:18:57.151Z,13.13
2018-10-01T09:19:57.149Z,13.09
2018-10-01T09:20:57.100Z,12.80
2018-10-01T09:21:57.076Z,12.88
2018-10-01T09:22:57.074Z,12.84
2018-10-01T09:23:57.031Z,12.80
2018-10-01T09:24:57.004Z,12.71
2018-10-01T09:25:57.012Z,12.66
2018-10-01T09:26:56.952Z,12.63
2018-10-01T09:27:56.941Z,12.70
2018-10-01T09:28:56.957Z,12.71
2018-10-01T09:29:56.879Z,12.61
2018-10-01T09:30:56.916Z,12.55
2018-10-01T09:31:56.858Z,12.76
2018-10-01T09:32:56.803Z,12.56
2018-10-01T09:33:56.777Z,12.54
2018-10-01T09:34:56.793Z,12.52
2018-10-01T09:35:56.725Z,12.59
2018-10-01T09:36:56.703Z,12.62
2018-10-01T09:37:56.705Z,12.79
2018-10-01T09:38:56.650Z,12.88
2018-10-01T09:39:56.653Z,13.13
2018-10-01T09:40:56.599Z,13.06
2018-10-01T09:41:56.576Z,12.96
2018-10-01T09:42:56.548Z,12.87
2018-10-01T09:43:56.532Z,12.88
2018-10-01T09:44:56.498Z,12.96
2018-10-01T09:45:56.482Z,13.03
2018-10-01T09:46:56.445Z,12.92
2018-10-01T09:47:56.442Z,12.77
2018-10-01T09:48:56.396Z,12.92
2018-10-01T09:49:56.411Z,12.98
2018-10-01T09:50:56.345Z,13.25
2018-10-01T09:51:56.339Z,13.32
2018-10-01T09:52:56.294Z,13.41
2018-10-01T09:53:56.269Z,13.87
2018-10-01T09:54:56.243Z,13.79
2018-10-01T09:55:56.222Z,13.69
2018-10-01T09:56:56.193Z,13.65
2018-10-01T09:57:56.222Z,14.11
2018-10-01T09:58:56.143Z,15.22
2018-10-01T09:59:56.118Z,16.22
2018-10-01T10:00:56.095Z,16.32
2018-10-01T10:01:56.071Z,15.91
2018-10-01T10:02:56.045Z,15.41
2018-10-01T10:03:56.103Z,14.63
2018-10-01T10:04:56.055Z,14.17
2018-10-01T10:05:55.973Z,14.05
2018-10-01T10:06:55.953Z,13.83
2018-10-01T10:07:55.956Z,13.99
2018-10-01T10:08:55.903Z,14.35
2018-10-01T10:09:55.881Z,15.23
2018-10-01T10:10:55.857Z,16.06
2018-10-01T10:11:55.834Z,16.42
2018-10-01T10:12:55.810Z,16.63
2018-10-01T10:13:56.012Z,17.12
2018-10-01T10:14:55.764Z,16.67
2018-10-01T10:15:55.951Z,16.85
2018-10-01T10:16:55.949Z,17.07
2018-10-01T10:17:55.925Z,17.35
2018-10-01T10:18:55.673Z,17.10
2018-10-01T10:19:55.707Z,16.57
2018-10-01T10:20:55.831Z,16.55
2018-10-01T10:21:55.621Z,17.00
2018-10-01T10:22:55.589Z,16.65
2018-10-01T10:23:55.564Z,15.85
2018-10-01T10:24:55.540Z,15.67
2018-10-01T10:25:55.529Z,15.19
2018-10-01T10:26:55.498Z,14.94
2018-10-01T10:27:55.532Z,14.78
2018-10-01T10:28:55.455Z,14.48
2018-10-01T10:29:55.432Z,14.09
2018-10-01T10:30:55.409Z,13.71
2018-10-01T10:31:55.450Z,13.47
2018-10-01T10:32:55.567Z,13.14
2018-10-01T10:33:55.348Z,13.10
2018-10-01T10:34:55.319Z,13.16
2018-10-01T10:35:55.299Z,13.14
2018-10-01T10:36:55.279Z,13.10
2018-10-01T10:37:55.251Z,13.12
2018-10-01T10:38:55.226Z,13.09
2018-10-01T10:39:55.201Z,13.07
2018-10-01T10:40:55.203Z,13.07
2018-10-01T10:41:55.228Z,13.19
2018-10-01T10:42:55.330Z,13.14
2018-10-01T10:43:55.120Z,13.28
2018-10-01T10:44:55.081Z,13.32
2018-10-01T10:45:55.260Z,13.36
2018-10-01T10:46:55.233Z,13.21
2018-10-01T10:47:55.014Z,12.92
2018-10-01T10:48:54.982Z,12.98
2018-10-01T10:49:54.992Z,12.99
2018-10-01T10:50:54.938Z,12.80
2018-10-01T10:51:54.910Z,12.74
2018-10-01T10:52:55.083Z,12.76
2018-10-01T10:53:54.854Z,12.84
2018-10-01T10:54:54.831Z,12.81
2018-10-01T10:55:55.019Z,12.80
2018-10-01T10:56:55.045Z,12.44
2018-10-01T10:57:54.753Z,12.26
2018-10-01T10:58:54.728Z,12.13
2018-10-01T10:59:54.704Z,11.70
2018-10-01T11:00:54.681Z,11.64
2018-10-01T11:01:54.652Z,11.63
2018-10-01T11:02:54.625Z,11.33
2018-10-01T11:03:54.599Z,11.27
2018-10-01T11:04:54.777Z,11.05
2018-10-01T11:05:54.545Z,11.02
2018-10-01T11:06:54.722Z,10.84
2018-10-01T11:07:54.543Z,10.72
2018-10-01T11:08:54.471Z,10.62
2018-10-01T11:09:54.440Z,10.69
2018-10-01T11:10:54.615Z,10.68
2018-10-01T11:11:54.385Z,10.58
2018-10-01T11:12:54.564Z,10.65
2018-10-01T11:13:54.413Z,10.55
2018-10-01T11:14:54.627Z,10.54
2018-10-01T11:15:54.277Z,10.44
2018-10-01T11:16:54.251Z,10.29
2018-10-01T11:17:54.299Z,10.28
2018-10-01T11:18:54.599Z,10.14
2018-10-01T11:19:54.424Z,10.16
2018-10-01T11:20:54.428Z,10.10
2018-10-01T11:21:54.153Z,10.04
2018-10-01T11:22:54.120Z,10.04
2018-10-01T11:23:54.054Z,10.14
2018-10-01T11:24:54.035Z,10.17
2018-10-01T11:25:54.198Z,10.11
2018-10-01T11:26:53.970Z,10.11
2018-10-01T11:27:53.952Z,10.09
2018-10-01T11:28:54.001Z,10.17
2018-10-01T11:29:53.885Z,10.18
2018-10-01T11:30:53.877Z,10.25
2018-10-01T11:31:53.973Z,10.44
2018-10-01T11:32:53.802Z,10.39
2018-10-01T11:33:53.774Z,10.47
2018-10-01T11:34:53.829Z,10.46
2018-10-01T11:35:53.717Z,10.55
2018-10-01T11:36:53.692Z,10.51
2018-10-01T11:37:53.662Z,10.51
2018-10-01T11:38:53.633Z,10.63
2018-10-01T11:39:53.607Z,10.75
2018-10-01T11:40:53.579Z,10.84
2018-10-01T11:41:53.550Z,10.84
2018-10-01T11:42:53.523Z,10.90
2018-10-01T11:43:53.494Z,10.87
2018-10-01T11:44:53.469Z,10.80
2018-10-01T11:45:53.443Z,10.86
2018-10-01T11:46:53.465Z,10.95
2018-10-01T11:47:53.386Z,10.84
2018-10-01T11:48:53.358Z,10.84
2018-10-01T11:49:53.329Z,10.76
2018-10-01T11:50:53.303Z,10.75
2018-10-01T11:51:53.278Z,10.81
2018-10-01T11:52:53.291Z,10.72
2018-10-01T11:53:53.223Z,10.80
2018-10-01T11:54:53.197Z,10.86
2018-10-01T11:55:53.166Z,10.78
2018-10-01T11:56:53.139Z,10.80
2018-10-01T11:57:53.110Z,10.76
2018-10-01T11:58:53.085Z,10.84
2018-10-01T11:59:53.059Z,10.83
2018-10-01T12:00:53.040Z,10.80
2018-10-01T12:01:53.003Z,10.90
2018-10-01T12:02:52.978Z,10.91
2018-10-01T12:03:52.994Z,10.86
2018-10-01T12:04:52.921Z,10.86
2018-10-01T12:05:52.893Z,10.87
2018-10-01T12:06:52.869Z,10.99
2018-10-01T12:07:52.860Z,10.95
2018-10-01T12:08:52.812Z,11.05
2018-10-01T12:09:53.108Z,11.16
2018-10-01T12:10:52.757Z,11.16
2018-10-01T12:11:52.730Z,11.16
2018-10-01T12:12:52.706Z,11.27
2018-10-01T12:13:52.675Z,11.13
2018-10-01T12:14:52.654Z,11.19
2018-10-01T12:15:52.785Z,11.19
2018-10-01T12:16:52.595Z,11.11
2018-10-01T12:17:52.567Z,11.20
2018-10-01T12:18:52.540Z,11.26
2018-10-01T12:19:52.523Z,11.42
2018-10-01T12:20:52.493Z,11.56
2018-10-01T12:21:52.524Z,11.51
2018-10-01T12:22:52.432Z,11.48
2018-10-01T12:23:52.405Z,11.59
2018-10-01T12:24:52.377Z,11.53
2018-10-01T12:25:52.351Z,11.53
2018-10-01T12:26:52.325Z,11.57
2018-10-01T12:27:52.303Z,11.67
2018-10-01T12:28:52.271Z,11.64
2018-10-01T12:29:52.248Z,11.72
2018-10-01T12:30:52.252Z,11.79
2018-10-01T12:31:52.191Z,11.90
2018-10-01T12:32:52.168Z,11.90
2018-10-01T12:33:52.140Z,11.84
2018-10-01T12:34:52.115Z,11.82
2018-10-01T12:35:52.088Z,11.78
2018-10-01T12:36:52.061Z,12.01
2018-10-01T12:37:52.036Z,11.84
2018-10-01T12:38:52.008Z,11.94
2018-10-01T12:39:51.982Z,11.88
2018-10-01T12:40:51.955Z,11.82
2018-10-01T12:41:51.928Z,11.93
2018-10-01T12:42:51.917Z,12.05
2018-10-01T12:43:51.876Z,12.12
2018-10-01T12:44:51.852Z,12.29
2018-10-01T12:45:51.823Z,12.18
2018-10-01T12:46:51.796Z,12.16
2018-10-01T12:47:51.772Z,12.13
2018-10-01T12:48:51.746Z,12.07
2018-10-01T12:49:51.719Z,12.23
2018-10-01T12:50:51.695Z,12.25
2018-10-01T12:51:51.668Z,12.41
2018-10-01T12:52:51.642Z,12.43